sensor_id;sensor_type;location;lat;lon;timestamp;P1;durP1;ratioP1;P2;durP2;ratioP2
76788;SDS011;65740;52.464;13.446;2023-06-14T00:04:02;2.80;;;2.60;;
76788;SDS011;65740;52.464;13.446;2023-06-14T00:06:29;2.87;;;2.77;;
76788;SDS011;65740;52.464;13.446;2023-06-14T00:08:55;2.80;;;2.60;;
76788;SDS011;65740;52.464;13.446;2023-06-14T00:11:21;2.70;;;2.60;;
76788;SDS011;65740;52.464;13.446;2023-06-14T00:13:46;2.80;;;2.60;;
76788;SDS011;65740;52.464;13.446;2023-06-14T00:16:12;3.10;;;2.90;;
76788;SDS011;65740;52.464;13.446;2023-06-14T00:18:38;3.40;;;3.07;;
76788;SDS011;65740;52.464;13.446;2023-06-14T00:21:04;2.87;;;2.67;;
76788;SDS011;65740;52.464;13.446;2023-06-14T00:23:30;2.63;;;2.43;;
76788;SDS011;65740;52.464;13.446;2023-06-14T00:25:56;2.80;;;2.60;;
76788;SDS011;65740;52.464;13.446;2023-06-14T00:28:21;2.73;;;2.53;;
76788;SDS011;65740;52.464;13.446;2023-06-14T00:30:47;2.83;;;2.73;;
76788;SDS011;65740;52.464;13.446;2023-06-14T00:33:13;2.97;;;2.77;;
76788;SDS011;65740;52.464;13.446;2023-06-14T00:35:39;5.20;;;3.13;;
76788;SDS011;65740;52.464;13.446;2023-06-14T00:38:04;2.73;;;2.63;;
76788;SDS011;65740;52.464;13.446;2023-06-14T00:40:30;3.40;;;3.10;;
76788;SDS011;65740;52.464;13.446;2023-06-14T00:42:56;2.83;;;2.70;;
76788;SDS011;65740;52.464;13.446;2023-06-14T00:45:21;2.77;;;2.57;;
76788;SDS011;65740;52.464;13.446;2023-06-14T00:47:47;2.50;;;2.40;;
76788;SDS011;65740;52.464;13.446;2023-06-14T00:50:13;2.57;;;2.40;;
76788;SDS011;65740;52.464;13.446;2023-06-14T00:52:39;2.73;;;2.53;;
76788;SDS011;65740;52.464;13.446;2023-06-14T00:55:05;2.73;;;2.63;;
76788;SDS011;65740;52.464;13.446;2023-06-14T00:57:31;2.97;;;2.80;;
76788;SDS011;65740;52.464;13.446;2023-06-14T00:59:57;2.87;;;2.70;;
76788;SDS011;65740;52.464;13.446;2023-06-14T01:02:23;2.77;;;2.67;;
76788;SDS011;65740;52.464;13.446;2023-06-14T01:04:51;2.80;;;2.70;;
76788;SDS011;65740;52.464;13.446;2023-06-14T01:15:23;2.63;;;2.43;;
76788;SDS011;65740;52.464;13.446;2023-06-14T01:17:51;2.70;;;2.50;;
76788;SDS011;65740;52.464;13.446;2023-06-14T01:20:21;2.13;;;2.03;;
76788;SDS011;65740;52.464;13.446;2023-06-14T01:22:51;2.50;;;2.40;;
76788;SDS011;65740;52.464;13.446;2023-06-14T01:25:18;2.40;;;2.30;;
76788;SDS011;65740;52.464;13.446;2023-06-14T01:27:51;2.43;;;2.33;;
76788;SDS011;65740;52.464;13.446;2023-06-14T01:30:18;2.80;;;2.70;;
76788;SDS011;65740;52.464;13.446;2023-06-14T01:32:46;2.93;;;2.73;;
76788;SDS011;65740;52.464;13.446;2023-06-14T01:35:13;3.00;;;2.80;;
76788;SDS011;65740;52.464;13.446;2023-06-14T01:37:39;2.57;;;2.47;;
76788;SDS011;65740;52.464;13.446;2023-06-14T01:40:07;2.40;;;2.30;;
76788;SDS011;65740;52.464;13.446;2023-06-14T01:42:35;3.00;;;2.80;;
76788;SDS011;65740;52.464;13.446;2023-06-14T01:45:03;2.70;;;2.53;;
76788;SDS011;65740;52.464;13.446;2023-06-14T01:47:31;2.80;;;2.60;;
76788;SDS011;65740;52.464;13.446;2023-06-14T01:49:57;2.33;;;2.23;;
76788;SDS011;65740;52.464;13.446;2023-06-14T01:52:23;2.67;;;2.57;;
76788;SDS011;65740;52.464;13.446;2023-06-14T01:54:49;2.67;;;2.57;;
76788;SDS011;65740;52.464;13.446;2023-06-14T01:57:16;2.93;;;2.77;;
76788;SDS011;65740;52.464;13.446;2023-06-14T01:59:41;2.57;;;2.47;;
76788;SDS011;65740;52.464;13.446;2023-06-14T02:02:07;2.80;;;2.70;;
76788;SDS011;65740;52.464;13.446;2023-06-14T02:04:33;2.57;;;2.47;;
76788;SDS011;65740;52.464;13.446;2023-06-14T02:06:59;3.00;;;2.80;;
76788;SDS011;65740;52.464;13.446;2023-06-14T02:09:25;2.83;;;2.73;;
76788;SDS011;65740;52.464;13.446;2023-06-14T02:11:51;2.83;;;2.70;;
76788;SDS011;65740;52.464;13.446;2023-06-14T02:14:16;2.60;;;2.50;;
76788;SDS011;65740;52.464;13.446;2023-06-14T02:16:42;2.63;;;2.53;;
76788;SDS011;65740;52.464;13.446;2023-06-14T02:19:17;2.70;;;2.50;;
76788;SDS011;65740;52.464;13.446;2023-06-14T02:21:43;3.03;;;2.90;;
76788;SDS011;65740;52.464;13.446;2023-06-14T02:24:09;3.10;;;2.90;;
76788;SDS011;65740;52.464;13.446;2023-06-14T02:26:35;3.20;;;3.00;;
76788;SDS011;65740;52.464;13.446;2023-06-14T02:29:03;2.47;;;2.37;;
76788;SDS011;65740;52.464;13.446;2023-06-14T02:31:30;2.90;;;2.80;;
76788;SDS011;65740;52.464;13.446;2023-06-14T02:33:56;2.87;;;2.77;;
76788;SDS011;65740;52.464;13.446;2023-06-14T02:36:22;3.20;;;3.00;;
76788;SDS011;65740;52.464;13.446;2023-06-14T02:38:48;2.90;;;2.80;;
76788;SDS011;65740;52.464;13.446;2023-06-14T02:41:13;3.40;;;3.20;;
76788;SDS011;65740;52.464;13.446;2023-06-14T02:43:39;3.17;;;2.97;;
76788;SDS011;65740;52.464;13.446;2023-06-14T02:46:05;3.57;;;3.27;;
76788;SDS011;65740;52.464;13.446;2023-06-14T02:48:31;3.67;;;3.47;;
76788;SDS011;65740;52.464;13.446;2023-06-14T02:50:56;3.30;;;3.10;;
76788;SDS011;65740;52.464;13.446;2023-06-14T02:53:22;3.23;;;3.03;;
76788;SDS011;65740;52.464;13.446;2023-06-14T02:55:48;3.20;;;3.00;;
76788;SDS011;65740;52.464;13.446;2023-06-14T02:58:13;3.20;;;3.10;;
76788;SDS011;65740;52.464;13.446;2023-06-14T03:00:39;3.20;;;3.10;;
76788;SDS011;65740;52.464;13.446;2023-06-14T03:03:06;2.93;;;2.83;;
76788;SDS011;65740;52.464;13.446;2023-06-14T03:05:40;2.83;;;2.73;;
76788;SDS011;65740;52.464;13.446;2023-06-14T03:08:11;3.23;;;2.90;;
76788;SDS011;65740;52.464;13.446;2023-06-14T03:10:42;3.20;;;3.10;;
76788;SDS011;65740;52.464;13.446;2023-06-14T03:13:08;3.00;;;2.90;;
76788;SDS011;65740;52.464;13.446;2023-06-14T03:15:34;3.13;;;3.03;;
76788;SDS011;65740;52.464;13.446;2023-06-14T03:18:00;2.70;;;2.60;;
76788;SDS011;65740;52.464;13.446;2023-06-14T03:20:26;2.90;;;2.80;;
76788;SDS011;65740;52.464;13.446;2023-06-14T03:22:54;3.53;;;3.33;;
76788;SDS011;65740;52.464;13.446;2023-06-14T03:25:19;3.00;;;2.90;;
76788;SDS011;65740;52.464;13.446;2023-06-14T03:27:46;3.50;;;3.30;;
76788;SDS011;65740;52.464;13.446;2023-06-14T03:30:12;2.73;;;2.53;;
76788;SDS011;65740;52.464;13.446;2023-06-14T03:32:38;2.70;;;2.60;;
76788;SDS011;65740;52.464;13.446;2023-06-14T03:35:04;2.70;;;2.60;;
76788;SDS011;65740;52.464;13.446;2023-06-14T03:37:30;2.80;;;2.70;;
76788;SDS011;65740;52.464;13.446;2023-06-14T03:39:56;2.67;;;2.57;;
76788;SDS011;65740;52.464;13.446;2023-06-14T03:42:21;3.20;;;3.00;;
76788;SDS011;65740;52.464;13.446;2023-06-14T03:44:47;2.80;;;2.70;;
76788;SDS011;65740;52.464;13.446;2023-06-14T03:47:12;3.20;;;2.90;;
76788;SDS011;65740;52.464;13.446;2023-06-14T03:49:38;3.07;;;2.93;;
76788;SDS011;65740;52.464;13.446;2023-06-14T03:52:04;3.27;;;3.07;;
76788;SDS011;65740;52.464;13.446;2023-06-14T03:54:30;3.20;;;3.10;;
76788;SDS011;65740;52.464;13.446;2023-06-14T03:56:57;2.90;;;2.80;;
76788;SDS011;65740;52.464;13.446;2023-06-14T03:59:23;3.80;;;3.50;;
76788;SDS011;65740;52.464;13.446;2023-06-14T04:01:50;3.30;;;3.10;;
76788;SDS011;65740;52.464;13.446;2023-06-14T04:04:16;3.50;;;3.30;;
76788;SDS011;65740;52.464;13.446;2023-06-14T04:06:42;3.50;;;3.30;;
76788;SDS011;65740;52.464;13.446;2023-06-14T04:09:07;3.40;;;3.20;;
76788;SDS011;65740;52.464;13.446;2023-06-14T04:11:33;3.17;;;2.97;;
76788;SDS011;65740;52.464;13.446;2023-06-14T04:13:59;2.97;;;2.77;;
76788;SDS011;65740;52.464;13.446;2023-06-14T04:16:25;2.80;;;2.70;;
76788;SDS011;65740;52.464;13.446;2023-06-14T04:18:51;3.00;;;2.90;;
76788;SDS011;65740;52.464;13.446;2023-06-14T04:21:17;3.63;;;3.33;;
76788;SDS011;65740;52.464;13.446;2023-06-14T04:23:43;3.30;;;3.10;;
76788;SDS011;65740;52.464;13.446;2023-06-14T04:26:08;3.40;;;3.20;;
76788;SDS011;65740;52.464;13.446;2023-06-14T04:28:36;3.07;;;2.97;;
76788;SDS011;65740;52.464;13.446;2023-06-14T04:31:05;3.03;;;2.90;;
76788;SDS011;65740;52.464;13.446;2023-06-14T04:33:34;3.70;;;3.40;;
76788;SDS011;65740;52.464;13.446;2023-06-14T04:36:12;3.30;;;3.10;;
76788;SDS011;65740;52.464;13.446;2023-06-14T04:38:38;3.13;;;3.03;;
76788;SDS011;65740;52.464;13.446;2023-06-14T04:41:04;3.13;;;3.03;;
76788;SDS011;65740;52.464;13.446;2023-06-14T04:43:31;3.07;;;2.97;;
76788;SDS011;65740;52.464;13.446;2023-06-14T04:46:01;3.30;;;3.10;;
76788;SDS011;65740;52.464;13.446;2023-06-14T04:48:28;3.00;;;2.90;;
76788;SDS011;65740;52.464;13.446;2023-06-14T04:50:53;2.80;;;2.70;;
76788;SDS011;65740;52.464;13.446;2023-06-14T04:53:19;3.60;;;3.40;;
76788;SDS011;65740;52.464;13.446;2023-06-14T04:55:47;3.40;;;3.20;;
76788;SDS011;65740;52.464;13.446;2023-06-14T04:58:13;2.90;;;2.80;;
76788;SDS011;65740;52.464;13.446;2023-06-14T05:00:39;3.23;;;3.03;;
76788;SDS011;65740;52.464;13.446;2023-06-14T05:03:06;3.20;;;3.00;;
76788;SDS011;65740;52.464;13.446;2023-06-14T05:05:32;3.30;;;3.10;;
76788;SDS011;65740;52.464;13.446;2023-06-14T05:07:58;3.57;;;3.40;;
76788;SDS011;65740;52.464;13.446;2023-06-14T05:10:24;3.30;;;3.20;;
76788;SDS011;65740;52.464;13.446;2023-06-14T05:12:50;3.53;;;3.33;;
76788;SDS011;65740;52.464;13.446;2023-06-14T05:15:17;3.63;;;2.97;;
76788;SDS011;65740;52.464;13.446;2023-06-14T05:17:43;3.37;;;3.20;;
76788;SDS011;65740;52.464;13.446;2023-06-14T05:20:12;2.93;;;2.83;;
76788;SDS011;65740;52.464;13.446;2023-06-14T05:22:38;3.30;;;3.10;;
76788;SDS011;65740;52.464;13.446;2023-06-14T05:25:04;3.20;;;3.00;;
76788;SDS011;65740;52.464;13.446;2023-06-14T05:27:30;3.47;;;3.27;;
76788;SDS011;65740;52.464;13.446;2023-06-14T05:29:55;3.47;;;3.27;;
76788;SDS011;65740;52.464;13.446;2023-06-14T05:32:23;3.20;;;3.10;;
76788;SDS011;65740;52.464;13.446;2023-06-14T05:34:49;3.20;;;2.90;;
76788;SDS011;65740;52.464;13.446;2023-06-14T05:37:15;3.30;;;3.10;;
76788;SDS011;65740;52.464;13.446;2023-06-14T05:39:40;3.03;;;2.93;;
76788;SDS011;65740;52.464;13.446;2023-06-14T05:42:06;3.40;;;3.20;;
76788;SDS011;65740;52.464;13.446;2023-06-14T05:44:32;3.17;;;3.07;;
76788;SDS011;65740;52.464;13.446;2023-06-14T05:46:57;2.90;;;2.80;;
76788;SDS011;65740;52.464;13.446;2023-06-14T05:49:23;3.00;;;2.90;;
76788;SDS011;65740;52.464;13.446;2023-06-14T05:51:49;3.07;;;2.90;;
76788;SDS011;65740;52.464;13.446;2023-06-14T05:54:14;3.03;;;2.93;;
76788;SDS011;65740;52.464;13.446;2023-06-14T05:56:40;3.20;;;3.07;;
76788;SDS011;65740;52.464;13.446;2023-06-14T05:59:05;3.10;;;2.90;;
76788;SDS011;65740;52.464;13.446;2023-06-14T06:01:31;3.20;;;3.00;;
76788;SDS011;65740;52.464;13.446;2023-06-14T06:03:58;3.10;;;2.90;;
76788;SDS011;65740;52.464;13.446;2023-06-14T06:06:24;3.30;;;3.10;;
76788;SDS011;65740;52.464;13.446;2023-06-14T06:08:50;3.00;;;2.80;;
76788;SDS011;65740;52.464;13.446;2023-06-14T06:11:15;3.70;;;3.50;;
76788;SDS011;65740;52.464;13.446;2023-06-14T06:13:41;3.23;;;3.10;;
76788;SDS011;65740;52.464;13.446;2023-06-14T06:16:07;3.47;;;3.27;;
76788;SDS011;65740;52.464;13.446;2023-06-14T06:18:32;2.97;;;2.87;;
76788;SDS011;65740;52.464;13.446;2023-06-14T06:20:58;3.53;;;3.43;;
76788;SDS011;65740;52.464;13.446;2023-06-14T06:23:23;3.63;;;3.43;;
76788;SDS011;65740;52.464;13.446;2023-06-14T06:25:49;3.50;;;3.30;;
76788;SDS011;65740;52.464;13.446;2023-06-14T06:28:15;3.40;;;3.27;;
76788;SDS011;65740;52.464;13.446;2023-06-14T06:30:41;3.67;;;3.47;;
76788;SDS011;65740;52.464;13.446;2023-06-14T06:33:06;3.97;;;3.77;;
76788;SDS011;65740;52.464;13.446;2023-06-14T06:35:32;3.57;;;3.37;;
76788;SDS011;65740;52.464;13.446;2023-06-14T06:37:58;4.00;;;3.80;;
76788;SDS011;65740;52.464;13.446;2023-06-14T06:40:24;3.40;;;3.20;;
76788;SDS011;65740;52.464;13.446;2023-06-14T06:42:49;4.97;;;4.50;;
76788;SDS011;65740;52.464;13.446;2023-06-14T06:45:15;4.20;;;4.00;;
76788;SDS011;65740;52.464;13.446;2023-06-14T06:47:41;5.07;;;4.57;;
76788;SDS011;65740;52.464;13.446;2023-06-14T06:50:07;7.40;;;4.80;;
76788;SDS011;65740;52.464;13.446;2023-06-14T06:52:33;5.67;;;5.27;;
76788;SDS011;65740;52.464;13.446;2023-06-14T06:54:59;6.13;;;5.53;;
76788;SDS011;65740;52.464;13.446;2023-06-14T06:57:24;5.90;;;5.40;;
76788;SDS011;65740;52.464;13.446;2023-06-14T06:59:50;6.63;;;6.13;;
76788;SDS011;65740;52.464;13.446;2023-06-14T07:02:16;7.27;;;6.40;;
76788;SDS011;65740;52.464;13.446;2023-06-14T07:04:42;6.10;;;5.50;;
76788;SDS011;65740;52.464;13.446;2023-06-14T07:07:07;6.57;;;6.00;;
76788;SDS011;65740;52.464;13.446;2023-06-14T07:09:34;6.70;;;6.10;;
76788;SDS011;65740;52.464;13.446;2023-06-14T07:12:00;6.40;;;5.90;;
76788;SDS011;65740;52.464;13.446;2023-06-14T07:14:26;7.97;;;6.13;;
76788;SDS011;65740;52.464;13.446;2023-06-14T07:16:51;8.03;;;6.40;;
76788;SDS011;65740;52.464;13.446;2023-06-14T07:19:17;9.03;;;7.07;;
76788;SDS011;65740;52.464;13.446;2023-06-14T07:21:43;7.27;;;6.70;;
76788;SDS011;65740;52.464;13.446;2023-06-14T07:24:08;12.37;;;6.87;;
76788;SDS011;65740;52.464;13.446;2023-06-14T07:26:34;10.03;;;7.60;;
76788;SDS011;65740;52.464;13.446;2023-06-14T07:29:00;8.40;;;6.93;;
76788;SDS011;65740;52.464;13.446;2023-06-14T07:31:26;8.47;;;7.47;;
76788;SDS011;65740;52.464;13.446;2023-06-14T07:33:52;9.50;;;6.87;;
76788;SDS011;65740;52.464;13.446;2023-06-14T07:36:18;8.47;;;7.10;;
76788;SDS011;65740;52.464;13.446;2023-06-14T07:38:43;8.27;;;7.33;;
76788;SDS011;65740;52.464;13.446;2023-06-14T07:41:10;8.13;;;7.43;;
76788;SDS011;65740;52.464;13.446;2023-06-14T07:43:35;7.50;;;6.90;;
76788;SDS011;65740;52.464;13.446;2023-06-14T07:46:01;7.60;;;6.80;;
76788;SDS011;65740;52.464;13.446;2023-06-14T07:48:27;8.70;;;7.50;;
76788;SDS011;65740;52.464;13.446;2023-06-14T07:50:53;7.77;;;7.07;;
76788;SDS011;65740;52.464;13.446;2023-06-14T07:53:18;7.57;;;6.83;;
76788;SDS011;65740;52.464;13.446;2023-06-14T07:55:44;7.57;;;6.83;;
76788;SDS011;65740;52.464;13.446;2023-06-14T07:58:12;6.90;;;6.30;;
76788;SDS011;65740;52.464;13.446;2023-06-14T08:00:38;9.57;;;7.60;;
76788;SDS011;65740;52.464;13.446;2023-06-14T08:03:03;8.07;;;6.93;;
76788;SDS011;65740;52.464;13.446;2023-06-14T08:05:29;8.07;;;7.37;;
76788;SDS011;65740;52.464;13.446;2023-06-14T08:07:55;11.27;;;6.70;;
76788;SDS011;65740;52.464;13.446;2023-06-14T08:10:21;7.53;;;6.83;;
76788;SDS011;65740;52.464;13.446;2023-06-14T08:12:47;8.33;;;7.63;;
76788;SDS011;65740;52.464;13.446;2023-06-14T08:15:16;9.30;;;7.50;;
76788;SDS011;65740;52.464;13.446;2023-06-14T08:17:42;11.03;;;6.37;;
76788;SDS011;65740;52.464;13.446;2023-06-14T08:20:09;12.40;;;7.00;;
76788;SDS011;65740;52.464;13.446;2023-06-14T08:22:35;9.63;;;6.93;;
76788;SDS011;65740;52.464;13.446;2023-06-14T08:25:02;9.60;;;6.80;;
76788;SDS011;65740;52.464;13.446;2023-06-14T08:27:29;7.37;;;6.77;;
76788;SDS011;65740;52.464;13.446;2023-06-14T08:29:55;7.77;;;7.07;;
76788;SDS011;65740;52.464;13.446;2023-06-14T08:32:21;7.40;;;6.73;;
76788;SDS011;65740;52.464;13.446;2023-06-14T08:34:47;8.17;;;7.17;;
76788;SDS011;65740;52.464;13.446;2023-06-14T08:37:13;6.80;;;6.30;;
76788;SDS011;65740;52.464;13.446;2023-06-14T08:39:38;7.10;;;6.60;;
76788;SDS011;65740;52.464;13.446;2023-06-14T08:42:04;8.27;;;7.60;;
76788;SDS011;65740;52.464;13.446;2023-06-14T08:44:32;11.83;;;7.57;;
76788;SDS011;65740;52.464;13.446;2023-06-14T08:46:59;8.80;;;7.83;;
76788;SDS011;65740;52.464;13.446;2023-06-14T08:49:26;8.40;;;7.53;;
76788;SDS011;65740;52.464;13.446;2023-06-14T08:51:54;8.27;;;6.77;;
76788;SDS011;65740;52.464;13.446;2023-06-14T08:54:23;7.90;;;6.90;;
76788;SDS011;65740;52.464;13.446;2023-06-14T08:56:52;7.50;;;6.90;;
76788;SDS011;65740;52.464;13.446;2023-06-14T08:59:22;8.10;;;7.50;;
76788;SDS011;65740;52.464;13.446;2023-06-14T09:01:50;6.60;;;6.00;;
76788;SDS011;65740;52.464;13.446;2023-06-14T09:04:18;7.60;;;6.60;;
76788;SDS011;65740;52.464;13.446;2023-06-14T09:06:45;7.93;;;7.33;;
76788;SDS011;65740;52.464;13.446;2023-06-14T09:09:10;7.10;;;6.40;;
76788;SDS011;65740;52.464;13.446;2023-06-14T09:11:37;7.47;;;6.87;;
76788;SDS011;65740;52.464;13.446;2023-06-14T09:14:03;7.77;;;6.80;;
76788;SDS011;65740;52.464;13.446;2023-06-14T09:16:31;8.60;;;6.73;;
76788;SDS011;65740;52.464;13.446;2023-06-14T09:18:57;9.57;;;7.00;;
76788;SDS011;65740;52.464;13.446;2023-06-14T09:21:23;7.90;;;6.83;;
76788;SDS011;65740;52.464;13.446;2023-06-14T09:23:49;7.00;;;6.40;;
76788;SDS011;65740;52.464;13.446;2023-06-14T09:26:15;22.60;;;6.53;;
76788;SDS011;65740;52.464;13.446;2023-06-14T09:28:48;8.37;;;6.80;;
76788;SDS011;65740;52.464;13.446;2023-06-14T09:31:18;7.37;;;6.40;;
76788;SDS011;65740;52.464;13.446;2023-06-14T09:33:46;12.40;;;7.40;;
76788;SDS011;65740;52.464;13.446;2023-06-14T09:36:18;7.40;;;6.80;;
76788;SDS011;65740;52.464;13.446;2023-06-14T09:38:57;7.10;;;6.40;;
76788;SDS011;65740;52.464;13.446;2023-06-14T09:41:33;7.20;;;6.43;;
76788;SDS011;65740;52.464;13.446;2023-06-14T09:43:59;7.67;;;6.97;;
76788;SDS011;65740;52.464;13.446;2023-06-14T09:46:27;7.80;;;7.10;;
76788;SDS011;65740;52.464;13.446;2023-06-14T09:48:54;6.47;;;5.87;;
76788;SDS011;65740;52.464;13.446;2023-06-14T09:51:22;9.13;;;6.57;;
76788;SDS011;65740;52.464;13.446;2023-06-14T09:53:51;6.27;;;5.83;;
76788;SDS011;65740;52.464;13.446;2023-06-14T09:56:20;7.20;;;6.60;;
76788;SDS011;65740;52.464;13.446;2023-06-14T09:58:51;7.50;;;6.70;;
76788;SDS011;65740;52.464;13.446;2023-06-14T10:01:20;8.70;;;6.80;;
76788;SDS011;65740;52.464;13.446;2023-06-14T10:03:49;7.90;;;7.20;;
76788;SDS011;65740;52.464;13.446;2023-06-14T10:06:20;10.17;;;8.20;;
76788;SDS011;65740;52.464;13.446;2023-06-14T10:08:49;11.97;;;7.77;;
76788;SDS011;65740;52.464;13.446;2023-06-14T10:11:19;9.20;;;8.40;;
76788;SDS011;65740;52.464;13.446;2023-06-14T10:13:45;8.60;;;7.80;;
76788;SDS011;65740;52.464;13.446;2023-06-14T10:16:24;9.10;;;7.43;;
76788;SDS011;65740;52.464;13.446;2023-06-14T10:24:08;8.40;;;7.70;;
76788;SDS011;65740;52.464;13.446;2023-06-14T10:26:49;9.43;;;7.43;;
76788;SDS011;65740;52.464;13.446;2023-06-14T10:29:19;11.33;;;7.30;;
76788;SDS011;65740;52.464;13.446;2023-06-14T10:31:46;8.97;;;7.90;;
76788;SDS011;65740;52.464;13.446;2023-06-14T10:34:22;8.13;;;7.40;;
76788;SDS011;65740;52.464;13.446;2023-06-14T10:37:02;7.10;;;6.50;;
76788;SDS011;65740;52.464;13.446;2023-06-14T10:39:39;7.43;;;6.73;;
76788;SDS011;65740;52.464;13.446;2023-06-14T10:42:06;7.80;;;7.10;;
76788;SDS011;65740;52.464;13.446;2023-06-14T10:47:08;7.23;;;6.67;;
76788;SDS011;65740;52.464;13.446;2023-06-14T10:49:55;8.40;;;6.77;;
76788;SDS011;65740;52.464;13.446;2023-06-14T10:52:44;7.03;;;6.33;;
76788;SDS011;65740;52.464;13.446;2023-06-14T10:55:14;7.37;;;6.60;;
76788;SDS011;65740;52.464;13.446;2023-06-14T10:57:49;11.20;;;6.80;;
76788;SDS011;65740;52.464;13.446;2023-06-14T11:00:27;8.70;;;7.00;;
76788;SDS011;65740;52.464;13.446;2023-06-14T11:05:48;7.30;;;6.27;;
76788;SDS011;65740;52.464;13.446;2023-06-14T11:10:54;7.10;;;6.40;;
76788;SDS011;65740;52.464;13.446;2023-06-14T11:13:24;7.60;;;6.70;;
76788;SDS011;65740;52.464;13.446;2023-06-14T11:15:51;11.87;;;7.40;;
76788;SDS011;65740;52.464;13.446;2023-06-14T11:18:19;13.10;;;8.40;;
76788;SDS011;65740;52.464;13.446;2023-06-14T11:20:49;27.33;;;11.30;;
76788;SDS011;65740;52.464;13.446;2023-06-14T11:23:15;69.80;;;37.00;;
76788;SDS011;65740;52.464;13.446;2023-06-14T11:25:40;41.77;;;30.30;;
76788;SDS011;65740;52.464;13.446;2023-06-14T11:28:06;26.47;;;16.37;;
76788;SDS011;65740;52.464;13.446;2023-06-14T11:30:32;28.10;;;16.03;;
76788;SDS011;65740;52.464;13.446;2023-06-14T11:32:58;22.60;;;15.23;;
76788;SDS011;65740;52.464;13.446;2023-06-14T11:35:23;23.63;;;13.77;;
76788;SDS011;65740;52.464;13.446;2023-06-14T11:37:54;14.97;;;12.00;;
76788;SDS011;65740;52.464;13.446;2023-06-14T11:40:23;11.37;;;9.50;;
76788;SDS011;65740;52.464;13.446;2023-06-14T11:42:49;11.00;;;9.10;;
76788;SDS011;65740;52.464;13.446;2023-06-14T11:45:22;14.53;;;9.13;;
76788;SDS011;65740;52.464;13.446;2023-06-14T11:47:48;9.87;;;8.87;;
76788;SDS011;65740;52.464;13.446;2023-06-14T11:50:13;11.33;;;7.90;;
76788;SDS011;65740;52.464;13.446;2023-06-14T11:52:39;8.87;;;7.93;;
76788;SDS011;65740;52.464;13.446;2023-06-14T11:55:05;8.30;;;7.60;;
76788;SDS011;65740;52.464;13.446;2023-06-14T11:57:34;10.10;;;6.93;;
76788;SDS011;65740;52.464;13.446;2023-06-14T12:00:04;7.73;;;7.03;;
76788;SDS011;65740;52.464;13.446;2023-06-14T12:02:40;7.90;;;7.20;;
76788;SDS011;65740;52.464;13.446;2023-06-14T12:05:06;13.93;;;7.60;;
76788;SDS011;65740;52.464;13.446;2023-06-14T12:07:35;9.90;;;6.73;;
76788;SDS011;65740;52.464;13.446;2023-06-14T12:12:34;10.97;;;7.47;;
76788;SDS011;65740;52.464;13.446;2023-06-14T12:15:05;13.37;;;7.00;;
76788;SDS011;65740;52.464;13.446;2023-06-14T12:17:35;8.60;;;7.57;;
76788;SDS011;65740;52.464;13.446;2023-06-14T12:20:08;7.10;;;6.40;;
76788;SDS011;65740;52.464;13.446;2023-06-14T12:22:53;11.03;;;7.13;;
76788;SDS011;65740;52.464;13.446;2023-06-14T12:25:23;7.03;;;6.33;;
76788;SDS011;65740;52.464;13.446;2023-06-14T12:27:54;7.37;;;6.70;;
76788;SDS011;65740;52.464;13.446;2023-06-14T12:30:20;8.50;;;7.00;;
76788;SDS011;65740;52.464;13.446;2023-06-14T12:32:46;6.90;;;6.20;;
76788;SDS011;65740;52.464;13.446;2023-06-14T12:35:11;7.30;;;6.60;;
76788;SDS011;65740;52.464;13.446;2023-06-14T12:37:37;6.50;;;5.87;;
76788;SDS011;65740;52.464;13.446;2023-06-14T12:40:03;9.07;;;6.80;;
76788;SDS011;65740;52.464;13.446;2023-06-14T12:42:30;8.43;;;6.53;;
76788;SDS011;65740;52.464;13.446;2023-06-14T12:44:56;6.63;;;6.13;;
76788;SDS011;65740;52.464;13.446;2023-06-14T12:47:22;9.17;;;7.03;;
76788;SDS011;65740;52.464;13.446;2023-06-14T12:49:47;6.43;;;5.83;;
76788;SDS011;65740;52.464;13.446;2023-06-14T12:52:13;6.33;;;5.80;;
76788;SDS011;65740;52.464;13.446;2023-06-14T12:54:39;6.47;;;5.90;;
76788;SDS011;65740;52.464;13.446;2023-06-14T12:57:05;6.77;;;6.13;;
76788;SDS011;65740;52.464;13.446;2023-06-14T12:59:31;6.50;;;5.90;;
76788;SDS011;65740;52.464;13.446;2023-06-14T13:02:19;7.53;;;6.70;;
76788;SDS011;65740;52.464;13.446;2023-06-14T13:04:46;7.20;;;6.20;;
76788;SDS011;65740;52.464;13.446;2023-06-14T13:07:12;6.53;;;5.93;;
76788;SDS011;65740;52.464;13.446;2023-06-14T13:09:40;12.47;;;7.00;;
76788;SDS011;65740;52.464;13.446;2023-06-14T13:12:06;7.17;;;5.90;;
76788;SDS011;65740;52.464;13.446;2023-06-14T13:14:33;6.43;;;5.63;;
76788;SDS011;65740;52.464;13.446;2023-06-14T13:16:58;7.13;;;6.50;;
76788;SDS011;65740;52.464;13.446;2023-06-14T13:19:24;7.23;;;6.47;;
76788;SDS011;65740;52.464;13.446;2023-06-14T13:21:50;7.73;;;6.80;;
76788;SDS011;65740;52.464;13.446;2023-06-14T13:24:17;6.80;;;6.20;;
76788;SDS011;65740;52.464;13.446;2023-06-14T13:26:43;7.23;;;6.53;;
76788;SDS011;65740;52.464;13.446;2023-06-14T13:29:08;7.40;;;6.60;;
76788;SDS011;65740;52.464;13.446;2023-06-14T13:31:34;8.27;;;6.47;;
76788;SDS011;65740;52.464;13.446;2023-06-14T13:34:00;7.37;;;6.60;;
76788;SDS011;65740;52.464;13.446;2023-06-14T13:36:25;9.07;;;6.53;;
76788;SDS011;65740;52.464;13.446;2023-06-14T13:38:51;11.13;;;6.57;;
76788;SDS011;65740;52.464;13.446;2023-06-14T13:41:18;6.77;;;6.00;;
76788;SDS011;65740;52.464;13.446;2023-06-14T13:43:43;6.17;;;5.57;;
76788;SDS011;65740;52.464;13.446;2023-06-14T13:46:09;7.83;;;6.77;;
76788;SDS011;65740;52.464;13.446;2023-06-14T13:48:35;6.63;;;6.07;;
76788;SDS011;65740;52.464;13.446;2023-06-14T13:51:00;8.43;;;6.33;;
76788;SDS011;65740;52.464;13.446;2023-06-14T13:53:28;7.53;;;6.10;;
76788;SDS011;65740;52.464;13.446;2023-06-14T13:55:54;12.73;;;6.67;;
76788;SDS011;65740;52.464;13.446;2023-06-14T13:58:20;11.93;;;5.90;;
76788;SDS011;65740;52.464;13.446;2023-06-14T14:00:46;8.70;;;6.13;;
76788;SDS011;65740;52.464;13.446;2023-06-14T14:03:11;10.10;;;6.90;;
76788;SDS011;65740;52.464;13.446;2023-06-14T14:05:37;10.77;;;6.70;;
76788;SDS011;65740;52.464;13.446;2023-06-14T14:08:03;11.43;;;7.23;;
76788;SDS011;65740;52.464;13.446;2023-06-14T14:10:29;8.70;;;6.87;;
76788;SDS011;65740;52.464;13.446;2023-06-14T14:12:55;14.67;;;7.10;;
76788;SDS011;65740;52.464;13.446;2023-06-14T14:15:21;9.17;;;6.77;;
76788;SDS011;65740;52.464;13.446;2023-06-14T14:17:47;9.40;;;7.00;;
76788;SDS011;65740;52.464;13.446;2023-06-14T14:20:13;11.50;;;6.80;;
76788;SDS011;65740;52.464;13.446;2023-06-14T14:22:41;10.87;;;6.80;;
76788;SDS011;65740;52.464;13.446;2023-06-14T14:25:07;8.50;;;6.27;;
76788;SDS011;65740;52.464;13.446;2023-06-14T14:27:34;9.73;;;6.80;;
76788;SDS011;65740;52.464;13.446;2023-06-14T14:30:00;9.57;;;6.20;;
76788;SDS011;65740;52.464;13.446;2023-06-14T14:32:26;7.30;;;6.60;;
76788;SDS011;65740;52.464;13.446;2023-06-14T14:34:52;8.63;;;6.77;;
76788;SDS011;65740;52.464;13.446;2023-06-14T14:37:17;10.47;;;6.33;;
76788;SDS011;65740;52.464;13.446;2023-06-14T14:39:44;6.87;;;6.17;;
76788;SDS011;65740;52.464;13.446;2023-06-14T14:42:10;9.43;;;7.23;;
76788;SDS011;65740;52.464;13.446;2023-06-14T14:44:37;9.13;;;5.93;;
76788;SDS011;65740;52.464;13.446;2023-06-14T14:47:03;10.30;;;6.50;;
76788;SDS011;65740;52.464;13.446;2023-06-14T14:49:30;8.30;;;6.00;;
76788;SDS011;65740;52.464;13.446;2023-06-14T14:51:56;6.50;;;6.00;;
76788;SDS011;65740;52.464;13.446;2023-06-14T14:54:22;7.73;;;6.00;;
76788;SDS011;65740;52.464;13.446;2023-06-14T14:56:48;8.10;;;6.67;;
76788;SDS011;65740;52.464;13.446;2023-06-14T14:59:14;10.00;;;6.50;;